createdAt,value
2016-05-20T00:00:35.004Z,86.75
2016-05-20T00:01:34.976Z,86.65
2016-05-20T00:02:34.931Z,86.75
2016-05-20T00:03:34.903Z,86.55
2016-05-20T00:04:34.858Z,86.55
2016-05-20T00:05:34.829Z,86.75
2016-05-20T00:06:34.786Z,86.94
2016-05-20T00:07:34.757Z,86.94
2016-05-20T00:08:34.728Z,86.55
2016-05-20T00:09:34.684Z,86.55
2016-05-20T00:10:34.656Z,86.55
2016-05-20T00:11:34.627Z,86.55
2016-05-20T00:12:34.583Z,86.27
2016-05-20T00:13:34.554Z,86.27
2016-05-20T00:14:34.511Z,86.27
2016-05-20T00:15:34.481Z,86.65
2016-05-20T00:16:34.453Z,86.27
2016-05-20T00:17:34.409Z,86.46
2016-05-20T00:18:35.771Z,86.36
2016-05-20T00:19:34.352Z,86.36
2016-05-20T00:20:34.308Z,86.36
2016-05-20T00:21:34.279Z,86.55
2016-05-20T00:22:34.235Z,86.36
2016-05-20T00:23:34.207Z,86.18
2016-05-20T00:24:34.396Z,86.94
2016-05-20T00:25:34.133Z,86.75
2016-05-20T00:26:34.104Z,86.65
2016-05-20T00:27:34.076Z,86.75
2016-05-20T00:28:34.032Z,86.46
2016-05-20T00:29:34.004Z,86.46
2016-05-20T00:30:33.976Z,87.13
2016-05-20T00:31:33.931Z,87.23
2016-05-20T00:32:33.902Z,87.23
2016-05-20T00:33:33.859Z,87.08
2016-05-20T00:34:33.830Z,86.99
2016-05-20T00:35:33.848Z,87.56
2016-05-20T00:36:33.757Z,87.65
2016-05-20T00:37:33.728Z,87.56
2016-05-20T00:38:33.700Z,88.13
2016-05-20T00:39:33.671Z,87.94
2016-05-20T00:40:33.627Z,87.65
2016-05-20T00:41:33.598Z,88.51
2016-05-20T00:42:33.553Z,88.42
2016-05-20T00:43:33.525Z,88.89
2016-05-20T00:44:33.498Z,88.99
2016-05-20T00:45:33.453Z,88.99
2016-05-20T00:46:33.424Z,89.56
2016-05-20T00:47:33.380Z,89.37
2016-05-20T00:48:33.352Z,89.65
2016-05-20T00:49:33.323Z,89.8
2016-05-20T00:50:33.279Z,90.56
2016-05-20T00:51:33.250Z,90.94
2016-05-20T00:52:33.206Z,90.47
2016-05-20T00:53:33.177Z,90.75
2016-05-20T00:54:33.149Z,90.66
2016-05-20T00:55:33.105Z,90.84
2016-05-20T00:56:33.076Z,91.13
2016-05-20T00:57:33.032Z,90.75
2016-05-20T00:58:33.004Z,90.47
2016-05-20T00:59:32.975Z,91.22
2016-05-20T01:00:32.931Z,90.75
2016-05-20T01:01:32.902Z,90.84
2016-05-20T01:02:32.858Z,91.32
2016-05-20T01:03:32.830Z,91.13
2016-05-20T01:04:32.801Z,92.08
2016-05-20T01:05:32.757Z,91.99
2016-05-20T01:06:32.728Z,91.61
2016-05-20T01:07:32.684Z,91.7
2016-05-20T01:08:32.656Z,91.56
2016-05-20T01:09:32.705Z,91.94
2016-05-20T01:10:32.583Z,91.94
2016-05-20T01:11:32.616Z,91.66
2016-05-20T01:12:32.509Z,91.75
2016-05-20T01:13:32.482Z,91.85
2016-05-20T01:14:32.452Z,91.94
2016-05-20T01:15:32.408Z,92.22
2016-05-20T01:16:32.364Z,91.94
2016-05-20T01:17:32.336Z,92.22
2016-05-20T01:18:32.308Z,92.22
2016-05-20T01:19:32.278Z,92.51
2016-05-20T01:20:32.250Z,93.18
2016-05-20T01:21:32.190Z,92.99
2016-05-20T01:22:32.161Z,93.08
2016-05-20T01:23:32.133Z,92.89
2016-05-20T01:24:32.120Z,93.18
2016-05-20T01:25:32.060Z,93.27
2016-05-20T01:26:32.016Z,92.89
2016-05-20T01:27:31.988Z,93.18
2016-05-20T01:28:31.944Z,93.18
2016-05-20T01:29:31.915Z,93.46
2016-05-20T01:30:31.887Z,94.13
2016-05-20T01:31:31.843Z,93.94
2016-05-20T01:32:31.798Z,93.94
2016-05-20T01:33:31.770Z,94.03
2016-05-20T01:34:31.741Z,93.94
2016-05-20T01:35:31.696Z,93.65
2016-05-20T01:36:31.668Z,93.65
2016-05-20T01:37:31.640Z,93.84
2016-05-20T01:38:31.595Z,93.55
2016-05-20T01:39:31.567Z,93.94
2016-05-20T01:40:31.522Z,94.22
2016-05-20T01:41:31.495Z,94.03
2016-05-20T01:42:31.451Z,94.6
2016-05-20T01:43:31.421Z,94.51
2016-05-20T01:44:31.378Z,94.42
2016-05-20T01:45:31.348Z,94.13
2016-05-20T01:46:31.320Z,94.13
2016-05-20T01:47:31.276Z,94.22
2016-05-20T01:48:31.231Z,94.42
2016-05-20T01:49:31.203Z,94.7
2016-05-20T01:50:31.174Z,94.79
2016-05-20T01:51:31.130Z,94.42
2016-05-20T01:52:31.102Z,94.42
2016-05-20T01:53:31.057Z,94.79
2016-05-20T01:54:31.107Z,94.89
2016-05-20T01:55:30.985Z,94.6
2016-05-20T01:56:30.957Z,94.7
2016-05-20T01:57:30.912Z,94.22
2016-05-20T01:58:30.883Z,94.51
2016-05-20T01:59:30.840Z,94.7
2016-05-20T02:00:30.811Z,94.51
2016-05-20T02:01:30.782Z,94.32
2016-05-20T02:02:30.738Z,94.51
2016-05-20T02:03:30.709Z,94.22
2016-05-20T02:04:30.665Z,94.51
2016-05-20T02:05:30.637Z,94.22
2016-05-20T02:06:30.592Z,93.84
2016-05-20T02:07:30.564Z,94.03
2016-05-20T02:08:30.535Z,94.03
2016-05-20T02:09:30.492Z,94.32
2016-05-20T02:10:30.463Z,94.22
2016-05-20T02:11:30.419Z,94.32
2016-05-20T02:12:30.390Z,94.32
2016-05-20T02:13:30.362Z,94.03
2016-05-20T02:14:30.317Z,93.84
2016-05-20T02:15:30.288Z,93.84
2016-05-20T02:16:30.245Z,93.94
2016-05-20T02:17:30.216Z,94.13
2016-05-20T02:18:30.172Z,93.94
2016-05-20T02:19:30.144Z,93.94
2016-05-20T02:20:30.099Z,93.46
2016-05-20T02:21:30.070Z,93.65
2016-05-20T02:22:30.041Z,93.75
2016-05-20T02:23:29.998Z,93.84
2016-05-20T02:24:29.953Z,93.94
2016-05-20T02:25:29.925Z,94.03
2016-05-20T02:26:29.897Z,94.03
2016-05-20T02:27:29.852Z,93.84
2016-05-20T02:28:29.839Z,93.65
2016-05-20T02:29:29.779Z,93.94
2016-05-20T02:30:29.751Z,94.03
2016-05-20T02:31:29.707Z,93.65
2016-05-20T02:32:29.678Z,93.55
2016-05-20T02:33:29.649Z,93.32
2016-05-20T02:34:29.604Z,93.23
2016-05-20T02:35:29.592Z,93.89
2016-05-20T02:36:29.532Z,94.03
2016-05-20T02:37:29.504Z,93.99
2016-05-20T02:38:29.523Z,93.23
2016-05-20T02:39:29.432Z,93.89
2016-05-20T02:40:29.403Z,94.18
2016-05-20T02:41:29.359Z,93.7
2016-05-20T02:42:29.331Z,93.89
2016-05-20T02:43:29.333Z,93.89
2016-05-20T02:44:29.257Z,93.79
2016-05-20T02:45:29.275Z,93.89
2016-05-20T02:46:29.184Z,93.79
2016-05-20T02:47:29.140Z,93.79
2016-05-20T02:48:29.112Z,93.79
2016-05-20T02:49:29.067Z,93.99
2016-05-20T02:50:29.039Z,93.7
2016-05-20T02:51:29.011Z,93.79
2016-05-20T02:52:28.967Z,93.6
2016-05-20T02:53:28.938Z,93.7
2016-05-20T02:54:28.894Z,93.32
2016-05-20T02:55:28.866Z,93.75
2016-05-20T02:56:28.821Z,93.37
2016-05-20T02:57:28.792Z,93.75
2016-05-20T02:58:28.748Z,93.84
2016-05-20T02:59:28.719Z,94.03
2016-05-20T03:00:28.675Z,93.94
2016-05-20T03:01:28.647Z,94.23
2016-05-20T03:02:28.603Z,94.13
2016-05-20T03:03:28.589Z,94.7
2016-05-20T03:04:28.530Z,94.7
2016-05-20T03:05:28.501Z,94.7
2016-05-20T03:06:28.473Z,94.7
2016-05-20T03:07:28.429Z,94.79
2016-05-20T03:08:28.400Z,95.27
2016-05-20T03:09:28.356Z,94.89
2016-05-20T03:10:28.343Z,94.89
2016-05-20T03:11:28.283Z,95.17
2016-05-20T03:12:28.254Z,94.79
2016-05-20T03:13:28.209Z,94.89
2016-05-20T03:14:28.181Z,94.89
2016-05-20T03:15:28.154Z,94.89
2016-05-20T03:16:28.109Z,94.98
2016-05-20T03:17:28.064Z,94.7
2016-05-20T03:18:28.037Z,94.98
2016-05-20T03:19:27.992Z,95.27
2016-05-20T03:20:27.963Z,95.46
2016-05-20T03:21:27.919Z,95.27
2016-05-20T03:22:27.891Z,95.84
2016-05-20T03:23:27.861Z,95.65
2016-05-20T03:24:28.161Z,95.75
2016-05-20T03:25:27.775Z,96.03
2016-05-20T03:26:27.744Z,95.84
2016-05-20T03:27:27.716Z,95.55
2016-05-20T03:28:27.672Z,95.84
2016-05-20T03:29:27.644Z,95.75
2016-05-20T03:30:27.600Z,95.84
2016-05-20T03:31:27.571Z,96.5
2016-05-20T03:32:27.527Z,96.6
2016-05-20T03:33:27.498Z,96.5
2016-05-20T03:34:27.454Z,96.5
2016-05-20T03:35:27.410Z,96.12
2016-05-20T03:36:27.381Z,96.41
2016-05-20T03:37:27.353Z,96.5
2016-05-20T03:38:27.309Z,96.5
2016-05-20T03:39:27.280Z,96.6
2016-05-20T03:40:27.236Z,96.5
2016-05-20T03:41:27.192Z,96.64
2016-05-20T03:42:27.163Z,96.64
2016-05-20T03:43:27.120Z,96.12
2016-05-20T03:44:27.090Z,96.93
2016-05-20T03:45:27.046Z,97.07
2016-05-20T03:46:27.017Z,97.12
2016-05-20T03:47:26.989Z,96.69
2016-05-20T03:48:26.944Z,96.98
2016-05-20T03:49:26.900Z,96.31
2016-05-20T03:50:26.872Z,96.12
2016-05-20T03:51:26.844Z,96.31
2016-05-20T03:52:26.800Z,96.31
2016-05-20T03:53:26.772Z,96.41
2016-05-20T03:54:26.836Z,96.22
2016-05-20T03:55:26.683Z,96.31
2016-05-20T03:56:26.655Z,96.31
2016-05-20T03:57:26.610Z,96.41
2016-05-20T03:58:26.581Z,96.69
2016-05-20T03:59:26.552Z,96.41
2016-05-20T04:00:26.508Z,96.69
2016-05-20T04:01:26.464Z,96.6
2016-05-20T04:02:26.436Z,96.5
2016-05-20T04:03:26.391Z,96.6
2016-05-20T04:04:26.363Z,96.5
2016-05-20T04:05:26.319Z,96.6
2016-05-20T04:06:26.291Z,96.6
2016-05-20T04:07:26.246Z,96.22
2016-05-20T04:08:26.217Z,96.5
2016-05-20T04:09:26.174Z,96.31
2016-05-20T04:10:26.145Z,96.79
2016-05-20T04:11:26.101Z,97.07
2016-05-20T04:12:26.072Z,96.6
2016-05-20T04:13:26.028Z,97.07
2016-05-20T04:14:25.999Z,97.36
2016-05-20T04:15:25.971Z,97.07
2016-05-20T04:16:25.927Z,97.03
2016-05-20T04:17:25.882Z,96.65
2016-05-20T04:18:25.854Z,96.65
2016-05-20T04:19:25.826Z,96.55
2016-05-20T04:20:25.781Z,96.45
2016-05-20T04:21:25.753Z,96.65
2016-05-20T04:22:25.708Z,95.7
2016-05-20T04:23:25.680Z,96.08
2016-05-20T04:24:25.808Z,95.98
2016-05-20T04:25:25.622Z,96.26
2016-05-20T04:26:25.578Z,95.6
2016-05-20T04:27:25.533Z,95.6
2016-05-20T04:28:25.490Z,95.51
2016-05-20T04:29:25.462Z,95.03
2016-05-20T04:30:25.433Z,95.22
2016-05-20T04:31:25.389Z,94.65
2016-05-20T04:32:25.360Z,95.12
2016-05-20T04:33:25.316Z,94.98
2016-05-20T04:34:25.288Z,94.7
2016-05-20T04:35:25.243Z,94.42
2016-05-20T04:36:25.215Z,94.13
2016-05-20T04:37:25.170Z,93.94
2016-05-20T04:38:25.143Z,93.84
2016-05-20T04:39:25.114Z,93.32
2016-05-20T04:40:25.069Z,93.23
2016-05-20T04:41:25.041Z,91.94
2016-05-20T04:42:25.012Z,90.8
2016-05-20T04:43:24.968Z,89.89
2016-05-20T04:44:24.940Z,88.84
2016-05-20T04:45:24.895Z,87.36
2016-05-20T04:46:24.867Z,86.41
2016-05-20T04:47:24.837Z,84.92
2016-05-20T04:48:24.794Z,84.07
2016-05-20T04:49:24.765Z,83.16
2016-05-20T04:50:24.736Z,81.54
2016-05-20T04:51:24.709Z,80.87
2016-05-20T04:52:24.664Z,80.05
2016-05-20T04:53:24.636Z,79.48
2016-05-20T04:54:24.607Z,79.14
2016-05-20T04:55:24.578Z,78.66
2016-05-20T04:56:24.549Z,77.36
2016-05-20T04:57:24.505Z,75.93
2016-05-20T04:58:24.477Z,75.16
2016-05-20T04:59:24.449Z,73.92
2016-05-20T05:00:24.419Z,72.72
2016-05-20T05:01:24.392Z,72.43
2016-05-20T05:02:24.362Z,71.19
2016-05-20T05:03:24.318Z,70.94
2016-05-20T05:04:24.291Z,70.56
2016-05-20T05:05:24.261Z,69.79
2016-05-20T05:06:24.233Z,68.74
2016-05-20T05:07:24.204Z,68.84
2016-05-20T05:08:24.176Z,69.12
2016-05-20T05:09:24.147Z,68.64
2016-05-20T05:10:24.118Z,68.64
2016-05-20T05:11:24.090Z,68.16
2016-05-20T05:12:24.061Z,66.63
2016-05-20T05:13:24.032Z,66.83
2016-05-20T05:14:24.004Z,66.83
2016-05-20T05:15:23.976Z,65.87
2016-05-20T05:16:23.948Z,65.33
2016-05-20T05:17:23.903Z,64.95
2016-05-20T05:18:23.875Z,65.04
2016-05-20T05:19:23.846Z,65.42
2016-05-20T05:20:23.834Z,65.39
2016-05-20T05:21:23.789Z,66.35
2016-05-20T05:22:23.760Z,66.73
2016-05-20T05:23:23.779Z,66.63
2016-05-20T05:24:23.703Z,67.69
2016-05-20T05:25:23.674Z,67.88
2016-05-20T05:26:23.646Z,68.35
2016-05-20T05:27:23.617Z,68.35
2016-05-20T05:28:23.589Z,67.4
2016-05-20T05:29:24.358Z,67.49
2016-05-20T05:30:24.344Z,66.47
2016-05-20T05:31:24.300Z,65.71
2016-05-20T05:32:24.272Z,65.08
2016-05-20T05:33:23.447Z,65.26
2016-05-20T05:34:23.418Z,65.08
2016-05-20T05:35:23.389Z,65.26
2016-05-20T05:36:23.360Z,64.79
2016-05-20T05:37:23.332Z,64.79
2016-05-20T05:38:23.304Z,65.36
2016-05-20T05:39:23.274Z,65.33
2016-05-20T05:40:23.247Z,66
2016-05-20T05:41:23.216Z,65.81
2016-05-20T05:42:23.187Z,66.19
2016-05-20T05:43:23.157Z,66.28
2016-05-20T05:44:23.130Z,66.35
2016-05-20T05:45:23.100Z,67.21
2016-05-20T05:46:23.073Z,67.11
2016-05-20T05:47:23.043Z,66.35
2016-05-20T05:48:23.015Z,66.76
2016-05-20T05:49:22.986Z,66.19
2016-05-20T05:50:23.771Z,66
2016-05-20T05:51:23.726Z,64.95
2016-05-20T05:52:23.698Z,64.4
2016-05-20T05:53:23.669Z,63.64
2016-05-20T05:54:23.625Z,62.52
2016-05-20T05:55:23.612Z,62.07
2016-05-20T05:56:23.583Z,60.67
2016-05-20T05:57:23.556Z,59.71
2016-05-20T05:58:22.901Z,58.11
2016-05-20T05:59:22.871Z,56.98
2016-05-20T06:00:23.527Z,55.57
2016-05-20T06:01:23.543Z,54.57
2016-05-20T06:02:22.934Z,53.13
2016-05-20T06:03:23.575Z,51.72
2016-05-20T06:04:23.598Z,50.4
2016-05-20T06:05:23.601Z,49.65
2016-05-20T06:06:23.573Z,47.75
2016-05-20T06:07:23.561Z,47
2016-05-20T06:08:23.564Z,45.87
2016-05-20T06:09:22.955Z,44.62
2016-05-20T06:10:23.541Z,43.12
2016-05-20T06:11:23.518Z,41.88
2016-05-20T06:12:23.496Z,40.53
2016-05-20T06:13:23.535Z,39.59
2016-05-20T06:14:23.464Z,38.74
2016-05-20T06:15:23.453Z,37.29
2016-05-20T06:16:23.410Z,36.24
2016-05-20T06:17:22.775Z,35.49
2016-05-20T06:18:23.374Z,34.92
2016-05-20T06:19:23.363Z,33.95
2016-05-20T06:20:23.349Z,33.1
2016-05-20T06:21:23.323Z,32.04
2016-05-20T06:22:23.309Z,31.16
2016-05-20T06:23:23.283Z,30.99
2016-05-20T06:24:23.271Z,30.51
2016-05-20T06:25:23.241Z,29.83
2016-05-20T06:26:22.589Z,29.55
2016-05-20T06:27:23.248Z,28.98
2016-05-20T06:28:23.189Z,27.82
2016-05-20T06:29:23.161Z,26.96
2016-05-20T06:30:23.147Z,26.67
2016-05-20T06:31:23.119Z,25.81
2016-05-20T06:32:22.465Z,24.95
2016-05-20T06:33:23.093Z,24.76
2016-05-20T06:34:23.080Z,24.28
2016-05-20T06:35:23.052Z,23.5
2016-05-20T06:36:23.023Z,23.71
2016-05-20T06:37:23.011Z,24
2016-05-20T06:38:22.997Z,23.43
2016-05-20T06:39:22.984Z,22.85
2016-05-20T06:40:22.956Z,22.56
2016-05-20T06:41:22.318Z,22.37
2016-05-20T06:42:22.929Z,21.22
2016-05-20T06:43:22.902Z,20.83
2016-05-20T06:44:22.888Z,19.96
2016-05-20T06:45:22.875Z,19.86
2016-05-20T06:46:22.846Z,19.38
2016-05-20T06:47:22.834Z,18.99
2016-05-20T06:48:22.821Z,19
2016-05-20T06:49:22.807Z,18.32
2016-05-20T06:50:22.779Z,18.04
2016-05-20T06:51:22.766Z,17.76
2016-05-20T06:52:22.801Z,17.08
2016-05-20T06:53:22.740Z,16.88
2016-05-20T06:54:22.790Z,16.89
2016-05-20T06:55:22.715Z,16.6
2016-05-20T06:56:22.046Z,16.6
2016-05-20T06:57:22.657Z,16.12
2016-05-20T06:58:22.723Z,15.83
2016-05-20T06:59:21.992Z,15.83
2016-05-20T07:00:22.650Z,15.73
2016-05-20T07:01:22.622Z,15.83
2016-05-20T07:02:22.578Z,15.25
2016-05-20T07:03:22.564Z,14.57
2016-05-20T07:04:22.551Z,14.67
2016-05-20T07:05:22.538Z,14.77
2016-05-20T07:06:22.119Z,14.29
2016-05-20T07:07:22.497Z,14.48
2016-05-20T07:08:22.484Z,13.81
2016-05-20T07:09:22.705Z,14
2016-05-20T07:10:22.442Z,13.22
2016-05-20T07:11:22.430Z,13.32
2016-05-20T07:12:21.808Z,12.94
2016-05-20T07:13:21.779Z,12.55
2016-05-20T07:14:22.391Z,12.75
2016-05-20T07:15:21.753Z,12.55
2016-05-20T07:16:22.366Z,11.97
2016-05-20T07:17:22.336Z,11.87
2016-05-20T07:18:22.324Z,12.16
2016-05-20T07:19:21.686Z,11.98
2016-05-20T07:20:21.673Z,10.8
2016-05-20T07:21:22.284Z,10.8
2016-05-20T07:22:22.521Z,10.51
2016-05-20T07:23:21.618Z,10.71
2016-05-20T07:24:22.246Z,10.82
2016-05-20T07:25:22.217Z,10.91
2016-05-20T07:26:22.204Z,10.71
2016-05-20T07:27:22.192Z,10.41
2016-05-20T07:28:22.179Z,10.12
2016-05-20T07:29:22.165Z,9.83
2016-05-20T07:30:22.137Z,9.93
2016-05-20T07:31:22.124Z,9.83
2016-05-20T07:32:22.112Z,9.05
2016-05-20T07:33:22.114Z,8.86
2016-05-20T07:34:22.086Z,8.86
2016-05-20T07:35:22.073Z,8.76
2016-05-20T07:36:22.059Z,8.47
2016-05-20T07:37:21.421Z,8.27
2016-05-20T07:38:22.049Z,8.47
2016-05-20T07:39:22.052Z,8.28
2016-05-20T07:40:22.242Z,7.89
2016-05-20T07:41:21.994Z,8.18
2016-05-20T07:42:21.982Z,7.6
2016-05-20T07:43:21.985Z,7.4
2016-05-20T07:44:21.972Z,7.1
2016-05-20T07:45:21.943Z,6.22
2016-05-20T07:46:22.196Z,6.42
2016-05-20T07:47:21.917Z,6.62
2016-05-20T07:48:21.904Z,6.13
2016-05-20T07:49:21.891Z,5.83
2016-05-20T07:50:22.097Z,5.74
2016-05-20T07:51:21.241Z,5.74
2016-05-20T07:52:21.228Z,5.34
2016-05-20T07:53:21.214Z,5.05
2016-05-20T07:54:21.826Z,5.05
2016-05-20T07:55:22.032Z,5.05
2016-05-20T07:56:21.801Z,5.15
2016-05-20T07:57:21.803Z,4.26
2016-05-20T07:58:21.775Z,4.46
2016-05-20T07:59:21.778Z,4.06
2016-05-20T08:00:21.781Z,3.57
2016-05-20T08:01:21.751Z,3.57
2016-05-20T08:02:21.739Z,3.57
2016-05-20T08:03:21.757Z,3.77
2016-05-20T08:05:21.700Z,4.07
2016-05-20T08:06:21.703Z,4.27
2016-05-20T08:07:21.142Z,4.36
2016-05-20T08:08:21.036Z,3.97
2016-05-20T08:09:21.023Z,3.67
2016-05-20T08:10:22.058Z,3.08
2016-05-20T08:11:21.638Z,2.68
2016-05-20T08:12:21.625Z,2.28
2016-05-20T08:13:21.003Z,2.69
2016-05-20T08:14:21.693Z,2.98
2016-05-20T08:15:21.586Z,3.47
2016-05-20T08:16:21.589Z,3.67
2016-05-20T08:17:27.920Z,4.06
2016-05-20T08:18:20.922Z,5.25
2016-05-20T08:19:21.535Z,5.83
2016-05-20T08:20:28.021Z,5.53
2016-05-20T08:21:21.524Z,5.33
2016-05-20T08:22:22.246Z,4.85
2016-05-20T08:23:21.498Z,4.46
2016-05-20T08:24:21.516Z,4.16
2016-05-20T08:25:27.363Z,3.77
2016-05-20T08:26:20.835Z,3.17
2016-05-20T08:27:21.462Z,3.97
2016-05-20T08:28:21.449Z,4.45
2016-05-20T08:29:20.795Z,5.04
2016-05-20T08:30:21.642Z,6.51
2016-05-20T08:31:21.410Z,7.88
2016-05-20T08:32:20.756Z,8.94
2016-05-20T08:33:21.385Z,10.2
2016-05-20T08:34:23.356Z,11.16
2016-05-20T08:35:21.375Z,12.22
2016-05-20T08:36:21.330Z,12.7
2016-05-20T08:37:22.458Z,13.66
2016-05-20T08:38:21.304Z,13.94
2016-05-20T08:39:21.275Z,14.13
2016-05-20T08:40:21.325Z,15.29
2016-05-20T08:41:20.625Z,15.28
2016-05-20T08:42:21.237Z,13.45
2016-05-20T08:43:20.584Z,12.4
2016-05-20T08:44:21.195Z,10.38
2016-05-20T08:45:20.557Z,10
2016-05-20T08:46:21.200Z,10.5
2016-05-20T08:47:21.157Z,9.61
2016-05-20T08:48:20.503Z,9.23
2016-05-20T08:49:21.116Z,9.23
2016-05-20T08:50:21.102Z,10.11
2016-05-20T08:51:20.449Z,10.98
2016-05-20T08:52:21.061Z,12.13
2016-05-20T08:53:21.048Z,13.1
2016-05-20T08:54:21.035Z,14.26
2016-05-20T08:55:21.021Z,15.11
2016-05-20T08:56:20.994Z,15.68
2016-05-20T08:57:20.355Z,15.67
2016-05-20T08:58:20.951Z,13.54
2016-05-20T08:59:20.940Z,11.82
2016-05-20T09:00:20.285Z,10.28
2016-05-20T09:01:20.288Z,8.25
2016-05-20T09:02:20.900Z,6.68
2016-05-20T09:03:20.871Z,6.01
2016-05-20T09:04:20.859Z,5.33
2016-05-20T09:05:20.221Z,6.61
2016-05-20T09:06:20.848Z,7.48
2016-05-20T09:07:20.178Z,8.36
2016-05-20T09:08:20.167Z,9.81
2016-05-20T09:09:20.809Z,10.68
2016-05-20T09:10:20.765Z,11.64
2016-05-20T09:11:20.737Z,12.7
2016-05-20T09:12:20.724Z,13.46
2016-05-20T09:13:20.711Z,14.62
2016-05-20T09:14:20.683Z,15.77
2016-05-20T09:15:20.669Z,16.63
2016-05-20T09:16:20.016Z,16.32
2016-05-20T09:17:20.644Z,14.58
2016-05-20T09:18:19.991Z,13.06
2016-05-20T09:19:19.962Z,11.33
2016-05-20T09:20:20.574Z,11.06
2016-05-20T09:21:20.561Z,10.86
2016-05-20T09:22:20.532Z,11.35
2016-05-20T09:23:20.535Z,11.63
2016-05-20T09:24:20.507Z,12.61
2016-05-20T09:25:19.852Z,12.89
2016-05-20T09:26:20.465Z,12.59
2016-05-20T09:27:20.451Z,12.21
2016-05-20T09:28:20.439Z,11.43
2016-05-20T09:29:20.410Z,11.54
2016-05-20T09:30:20.398Z,13
2016-05-20T09:31:20.369Z,13.67
2016-05-20T09:32:20.356Z,13.75
2016-05-20T09:33:20.343Z,12.68
2016-05-20T09:34:20.315Z,12.97
2016-05-20T09:35:19.676Z,14.04
2016-05-20T09:36:20.273Z,15.68
2016-05-20T09:37:20.259Z,16.73
2016-05-20T09:38:20.247Z,17.11
2016-05-20T09:40:20.486Z,13.64
2016-05-20T09:41:20.208Z,11.23
2016-05-20T09:42:20.164Z,9.89
2016-05-20T09:43:20.151Z,8.93
2016-05-20T09:44:20.139Z,7.08
2016-05-20T09:45:20.125Z,6.01
2016-05-20T09:46:20.097Z,5.32
2016-05-20T09:47:20.318Z,5.23
2016-05-20T09:48:19.446Z,5.73
2016-05-20T09:49:20.074Z,4.93
2016-05-20T09:50:20.045Z,4.73
2016-05-20T09:51:20.016Z,4.83
2016-05-20T09:52:20.003Z,5.22
2016-05-20T09:53:19.991Z,5.41
2016-05-20T09:54:20.212Z,5.42
2016-05-20T09:55:19.965Z,5.42
2016-05-20T09:56:19.967Z,5.91
2016-05-20T09:57:20.142Z,5.91
2016-05-20T09:58:19.926Z,5.72
2016-05-20T09:59:19.896Z,5.13
2016-05-20T10:00:19.946Z,5.02
2016-05-20T10:01:19.465Z,5.61
2016-05-20T10:02:19.859Z,5.61
2016-05-20T10:03:19.862Z,5.11
2016-05-20T10:04:19.832Z,5.41
2016-05-20T10:05:19.195Z,4.92
2016-05-20T10:06:19.807Z,5.11
2016-05-20T10:07:19.810Z,4.72
2016-05-20T10:08:19.781Z,4.43
2016-05-20T10:09:19.768Z,4.24
2016-05-20T10:10:20.223Z,4.24
2016-05-20T10:11:19.742Z,4.14
2016-05-20T10:12:19.729Z,4.14
2016-05-20T10:13:19.091Z,3.95
2016-05-20T10:14:19.703Z,3.56
2016-05-20T10:15:19.690Z,3.66
2016-05-20T10:16:19.677Z,3.66
2016-05-20T10:17:19.664Z,3.27
2016-05-20T10:18:19.652Z,3.56
2016-05-20T10:19:19.638Z,4.05
2016-05-20T10:20:19.625Z,5.03
2016-05-20T10:21:19.613Z,5.51
2016-05-20T10:22:19.599Z,5.22
2016-05-20T10:23:19.586Z,5.22
2016-05-20T10:24:19.589Z,4.14
2016-05-20T10:25:19.561Z,4.05
2016-05-20T10:26:19.548Z,3.66
2016-05-20T10:27:18.910Z,3.06
2016-05-20T10:28:19.521Z,3.96
2016-05-20T10:29:19.727Z,4.05
2016-05-20T10:30:19.496Z,5.13
2016-05-20T10:31:19.483Z,5.91
2016-05-20T10:32:19.485Z,6.29
2016-05-20T10:33:19.457Z,7.37
2016-05-20T10:34:19.445Z,8.23
2016-05-20T10:35:19.479Z,8.42
2016-05-20T10:36:19.403Z,8.7
2016-05-20T10:37:19.812Z,8.22
2016-05-20T10:38:19.377Z,6.76
2016-05-20T10:39:18.739Z,5.79
2016-05-20T10:40:19.367Z,4.62
2016-05-20T10:41:19.339Z,4.04
2016-05-20T10:42:18.700Z,3.85
2016-05-20T10:43:19.298Z,2.96
2016-05-20T10:44:18.658Z,2.76
2016-05-20T10:45:18.662Z,2.57
2016-05-20T10:46:19.259Z,2.67
2016-05-20T10:47:19.245Z,2.66
2016-05-20T10:48:19.858Z,3.06
2016-05-20T10:49:19.220Z,3.16
2016-05-20T10:50:19.206Z,3.45
2016-05-20T10:51:19.193Z,3.25
2016-05-20T10:52:19.197Z,3.55
2016-05-20T10:53:18.542Z,4.23
2016-05-20T10:54:19.155Z,3.94
2016-05-20T10:55:19.141Z,4.33
2016-05-20T10:56:19.129Z,5.11
2016-05-20T10:57:18.491Z,5.6
2016-05-20T10:58:19.119Z,6.18
2016-05-20T10:59:19.138Z,6.57
2016-05-20T11:00:33.326Z,7.16
2016-05-20T11:01:19.313Z,7.44
2016-05-20T11:02:18.395Z,7.93
2016-05-20T11:03:19.007Z,8.11
2016-05-20T11:04:18.994Z,8.7
2016-05-20T11:05:19.012Z,9.08
2016-05-20T11:06:18.968Z,10.14
2016-05-20T11:07:18.315Z,10.72
2016-05-20T11:08:18.942Z,12.55
2016-05-20T11:09:19.117Z,13.71
2016-05-20T11:10:18.901Z,13.71
2016-05-20T11:11:18.248Z,14.18
2016-05-20T11:12:18.860Z,14.86
2016-05-20T11:13:18.846Z,15.63
2016-05-20T11:14:18.817Z,16.39
2016-05-20T11:15:18.820Z,16.57
2016-05-20T11:16:18.776Z,17.91
2016-05-20T11:17:18.779Z,19.15
2016-05-20T11:18:18.813Z,20.5
2016-05-20T11:19:19.472Z,20.97
2016-05-20T11:20:18.069Z,21.26
2016-05-20T11:21:18.696Z,21.92
2016-05-20T11:22:17.870Z,22.6
2016-05-20T11:23:17.872Z,23.45
2016-05-20T11:24:17.813Z,24.11
2016-05-20T11:25:18.019Z,24.97
2016-05-20T11:26:17.772Z,25.44
2016-05-20T11:27:17.758Z,26.97
2016-05-20T11:28:17.777Z,27.06
2016-05-20T11:29:17.718Z,27.71
2016-05-20T11:30:17.689Z,28.08
2016-05-20T11:31:17.661Z,29.04
2016-05-20T11:32:17.663Z,30.28
2016-05-20T11:33:17.619Z,30.28
2016-05-20T11:34:17.590Z,30.55
2016-05-20T11:35:17.562Z,30.84
2016-05-20T11:36:17.549Z,31.23
2016-05-20T11:37:17.520Z,31.9
2016-05-20T11:38:17.492Z,33.05
2016-05-20T11:39:17.462Z,32.28
2016-05-20T11:40:17.434Z,32.18
2016-05-20T11:41:17.421Z,32.47
2016-05-20T11:42:17.393Z,32.86
2016-05-20T11:43:17.364Z,33.24
2016-05-20T11:44:17.337Z,33.53
2016-05-20T11:45:17.307Z,32.95
2016-05-20T11:46:17.278Z,32.57
2016-05-20T11:47:17.266Z,32.18
2016-05-20T11:48:17.222Z,31.9
2016-05-20T11:49:17.443Z,32.38
2016-05-20T11:50:17.180Z,32.76
2016-05-20T11:51:17.153Z,33.62
2016-05-20T11:52:17.122Z,33.62
2016-05-20T11:53:17.094Z,34.09
2016-05-20T11:54:17.113Z,34.38
2016-05-20T11:55:17.428Z,35.24
2016-05-20T11:56:17.009Z,35.03
2016-05-20T11:57:16.980Z,34.94
2016-05-20T11:58:16.967Z,35.89
2016-05-20T11:59:16.955Z,36.18
2016-05-20T12:00:16.910Z,36.28
2016-05-20T12:01:16.882Z,36.09
2016-05-20T12:02:16.853Z,37.05
2016-05-20T12:03:16.840Z,37.15
2016-05-20T12:04:16.812Z,36.38
2016-05-20T12:05:16.768Z,35.13
2016-05-20T12:06:16.738Z,35.8
2016-05-20T12:07:16.913Z,35.99
2016-05-20T12:08:16.681Z,35.89
2016-05-20T12:09:16.669Z,35.89
2016-05-20T12:10:16.624Z,35.71
2016-05-20T12:11:16.612Z,35.99
2016-05-20T12:12:16.568Z,35.13
2016-05-20T12:13:16.587Z,34.67
2016-05-20T12:14:16.510Z,34.28
2016-05-20T12:15:16.497Z,34.76
2016-05-20T12:16:16.453Z,35.14
2016-05-20T12:17:16.440Z,34.97
2016-05-20T12:18:16.396Z,34.97
2016-05-20T12:19:16.383Z,34.39
2016-05-20T12:20:16.386Z,33.82
2016-05-20T12:21:16.325Z,33.15
2016-05-20T12:22:16.297Z,32.76
2016-05-20T12:23:16.269Z,33.15
2016-05-20T12:24:16.241Z,32.95
2016-05-20T12:25:16.228Z,33.7
2016-05-20T12:26:16.183Z,33.44
2016-05-20T12:27:16.155Z,34.01
2016-05-20T12:28:16.127Z,34.3
2016-05-20T12:29:16.097Z,33.82
2016-05-20T12:30:16.116Z,33.62
2016-05-20T12:31:16.041Z,34.11
2016-05-20T12:32:16.012Z,34.57
2016-05-20T12:33:15.983Z,34.67
2016-05-20T12:34:15.955Z,33.91
2016-05-20T12:35:15.927Z,32.18
2016-05-20T12:36:15.898Z,32.76
2016-05-20T12:37:15.869Z,33.82
2016-05-20T12:38:15.856Z,33.9
2016-05-20T12:39:15.813Z,34.78
2016-05-20T12:40:16.080Z,34.59
2016-05-20T12:41:15.770Z,34.88
2016-05-20T12:42:15.743Z,34.78
2016-05-20T12:43:15.713Z,34.78
2016-05-20T12:44:15.670Z,34.19
2016-05-20T12:45:15.656Z,34.95
2016-05-20T12:46:15.628Z,34.38
2016-05-20T12:47:15.598Z,34.47
2016-05-20T12:48:15.570Z,34.57
2016-05-20T12:49:15.761Z,35.63
2016-05-20T12:50:15.514Z,34.67
2016-05-20T12:51:15.485Z,33.78
2016-05-20T12:52:15.456Z,34.17
2016-05-20T12:53:15.444Z,35.24
2016-05-20T12:54:15.400Z,35.53
2016-05-20T12:55:15.371Z,35.34
2016-05-20T12:56:15.341Z,34.95
2016-05-20T12:57:15.313Z,35.24
2016-05-20T12:58:15.286Z,35.36
2016-05-20T12:59:15.256Z,35.64
2016-05-20T13:00:15.228Z,34.97
2016-05-20T13:01:15.199Z,35.16
2016-05-20T13:02:15.171Z,34.97